Etusivu
METAR-TAF:

METAR-TAF

Lentoasemat :

Tukholma-Skavsta, Ruotsi

Skavstan lentoasema

Leveyspiiri: 58-47N, Pituuspiiri: 016-55E, korkeus merenpinnasta: 43 m

Tämänhetkinen sää

Tämä raportti tehtiin 23 minuuttia sitten, kello 06.20 UTC
Tuuli 6 kn lännestä
Lämpötila 12°C
Kosteus 88%
Ilmanpaine 1012 hPa
Näkyvyys 10 km tai enemmän
ei pilviä alle 1500 m:ssä eikä cumulonimbus-pilviä

METAR: ESKN 240620Z 28006KT CAVOK 12/10 Q1012

Aika: 08:43 (06:43 UTC)

Sääennuste

Tämä raportti tehtiin 1 tunti ja 13 minuuttia sitten, kello 05.30 UTC
Ennuste voimassa 24. päivästä klo 06 UTC - 25. päivään klo 06 UTC
Tuuli 7 kn lännestä
Näkyvyys 10 km tai enemmän
ei pilviä alle 1500 m:ssä eikä cumulonimbus-pilviä
Ajoittain
24. päivästä klo 22 UTC - 25. päivään klo 06 UTC
Hajonneita pilviä 4000 ft:n korkeudessa, Cumulonimbus.
vesikuuroja

TAF: ESKN 240530Z 2406/2506 28007KT CAVOK TEMPO 2422/2506 SHRA BKN040CB

Säähavainnot ja -ennusteet yli 4000 lentoasemalta (METAR- ja TAF-raportit).

Käytössä olevat sääasemat on merkitty karttaan keltaisilla ja punaisilla pisteillä.

Aseta hiiri pisteen päälle nähdäksesi sääaseman nimen.

Klikkaa sitten nähdäksesi säähavainnot ja -ennusteet.

Kartan vaihtaminen: klikkaa mustalla rastilla varustettuja vihreitä pisteitä, niin voit zoomata sisään; viivalla varustettua vihreää pistettä, niin voit zoomata ulos tai vihreitä nuolia, niin pääset viereisille kartoille.


METAR-TAF: